Time;durP1;ratioP1;P1;durP2;ratioP2;P2;SDS_P1;SDS_P2;PMS_P1;PMS_P2;Temp;Humidity;BMP_temperature;BMP_pressure;BME280_temperature;BME280_humidity;BME280_pressure;Samples;Min_cycle;Max_cycle;Signal;HPM_P1;HPM_P2
2022/08/10 00:00:53;;;;;;;2.50;2.00;;;20.60;99.90;;;;;;5107661;28;20399;-69
2022/08/10 00:03:19;;;;;;;3.90;2.20;;;20.50;99.90;;;;;;5106860;28;20377;-70
2022/08/10 00:05:44;;;;;;;4.30;2.10;;;20.50;99.90;;;;;;5106425;28;20472;-70
2022/08/10 00:08:10;;;;;;;3.60;1.95;;;20.50;99.90;;;;;;5105546;28;20657;-70
2022/08/10 00:10:35;;;;;;;4.07;2.00;;;20.30;99.90;;;;;;5106891;28;20404;-70
2022/08/10 00:13:01;;;;;;;3.03;2.03;;;20.30;99.90;;;;;;5107628;28;20475;-70
2022/08/10 00:15:27;;;;;;;3.33;2.10;;;20.30;99.90;;;;;;5108766;27;20467;-70
2022/08/10 00:17:52;;;;;;;3.20;2.22;;;20.30;99.90;;;;;;5109407;28;20415;-70
2022/08/10 00:20:18;;;;;;;2.60;2.00;;;20.30;99.90;;;;;;5107752;28;20384;-70
2022/08/10 00:22:44;;;;;;;3.07;2.10;;;20.20;99.90;;;;;;5109399;28;20400;-70
2022/08/10 00:25:09;;;;;;;3.03;2.20;;;20.10;99.90;;;;;;5108306;28;20392;-70
2022/08/10 00:27:35;;;;;;;4.90;1.80;;;20.00;99.90;;;;;;5109093;28;20396;-70
2022/08/10 00:30:01;;;;;;;2.97;2.13;;;20.10;99.90;;;;;;5109128;28;20836;-70
2022/08/10 00:32:26;;;;;;;2.95;2.33;;;20.10;99.90;;;;;;5107896;28;20379;-70
2022/08/10 00:34:52;;;;;;;3.13;1.93;;;20.10;99.90;;;;;;5107587;28;20440;-70
2022/08/10 00:37:18;;;;;;;3.77;2.17;;;20.00;99.90;;;;;;5109949;28;20676;-70
2022/08/10 00:39:45;;;;;;;2.50;2.08;;;19.90;99.90;;;;;;5109483;28;20388;-70
2022/08/10 00:42:12;;;;;;;3.38;2.85;;;19.80;99.90;;;;;;5108878;28;20412;-70
2022/08/10 00:44:41;;;;;;;6.93;3.50;;;19.80;99.90;;;;;;5108402;28;20384;-70
2022/08/10 00:47:07;;;;;;;2.60;2.20;;;19.70;99.90;;;;;;5109342;28;20652;-70
2022/08/10 00:49:33;;;;;;;3.80;2.10;;;19.70;99.90;;;;;;5110496;28;20861;-70
2022/08/10 00:51:59;;;;;;;3.90;2.20;;;19.70;99.90;;;;;;5111919;28;20464;-70
2022/08/10 00:54:25;;;;;;;2.70;2.00;;;19.60;99.90;;;;;;5110897;28;20729;-69
2022/08/10 00:56:51;;;;;;;2.67;1.95;;;19.60;99.90;;;;;;5110647;28;20545;-70
2022/08/10 00:59:17;;;;;;;2.65;2.00;;;19.70;99.90;;;;;;5110545;28;20563;-69
2022/08/10 01:01:42;;;;;;;3.05;1.95;;;19.60;99.90;;;;;;5112134;28;20500;-69
2022/08/10 01:04:08;;;;;;;2.70;2.10;;;19.60;99.90;;;;;;5109750;28;20779;-68
2022/08/10 01:06:52;;;;;;;3.30;2.00;;;19.60;99.90;;;;;;5105349;28;20555;-69
2022/08/10 01:09:33;;;;;;;2.45;2.20;;;19.60;99.90;;;;;;5107358;28;20595;-69
2022/08/10 01:12:11;;;;;;;2.90;1.90;;;19.50;99.90;;;;;;5105908;28;20381;-69
2022/08/10 01:14:55;;;;;;;5.07;2.10;;;19.60;99.90;;;;;;5104838;28;20464;-69
2022/08/10 01:17:31;;;;;;;3.85;1.77;;;19.50;99.90;;;;;;5104735;28;20548;-69
2022/08/10 01:20:11;;;;;;;2.70;1.90;;;19.40;99.90;;;;;;5107188;28;20391;-69
2022/08/10 01:23:05;;;;;;;3.05;1.95;;;19.40;99.90;;;;;;5107303;28;20660;-69
2022/08/10 01:25:45;;;;;;;3.30;1.90;;;19.40;99.90;;;;;;5107923;28;20387;-69
2022/08/10 01:28:19;;;;;;;3.80;2.13;;;19.30;99.90;;;;;;5112685;28;20400;-69
2022/08/10 01:30:47;;;;;;;2.35;1.95;;;19.30;99.90;;;;;;5113582;28;20392;-71
2022/08/10 01:33:23;;;;;;;2.83;2.28;;;19.30;99.90;;;;;;5112919;28;20388;-69
2022/08/10 01:36:09;;;;;;;3.03;1.90;;;19.30;99.90;;;;;;5113935;28;20416;-69
2022/08/10 01:38:41;;;;;;;2.78;2.15;;;19.30;99.90;;;;;;5113852;28;20387;-70
2022/08/10 01:41:23;;;;;;;3.95;1.98;;;19.20;99.90;;;;;;5111153;28;20377;-69
2022/08/10 01:43:57;;;;;;;2.30;2.10;;;19.20;99.90;;;;;;5110548;28;20388;-70
2022/08/10 01:46:24;;;;;;;3.00;2.05;;;19.20;99.90;;;;;;5110437;28;20383;-70
2022/08/10 01:48:53;;;;;;;3.85;2.10;;;19.10;99.90;;;;;;5112243;28;20396;-70
2022/08/10 01:51:33;;;;;;;3.03;1.90;;;19.10;99.90;;;;;;5111327;28;20459;-70
2022/08/10 01:54:05;;;;;;;3.03;2.05;;;19.10;99.90;;;;;;5112580;28;20415;-70
2022/08/10 01:56:35;;;;;;;3.40;2.40;;;19.00;99.90;;;;;;5114396;28;20392;-70
2022/08/10 01:59:19;;;;;;;1.97;1.80;;;19.00;99.90;;;;;;5112964;28;20423;-70
2022/08/10 02:01:49;;;;;;;2.13;1.92;;;19.00;99.90;;;;;;5109505;28;20445;-70
2022/08/10 02:04:17;;;;;;;2.20;1.88;;;18.90;99.90;;;;;;5109125;28;20831;-69
2022/08/10 02:06:46;;;;;;;4.43;2.13;;;18.90;99.90;;;;;;5110490;28;20857;-70
2022/08/10 02:09:16;;;;;;;2.00;1.80;;;18.80;99.90;;;;;;5110570;28;20423;-70
2022/08/10 02:11:43;;;;;;;2.10;1.80;;;18.90;99.90;;;;;;5109813;28;20718;-72
2022/08/10 02:14:12;;;;;;;3.05;2.08;;;18.90;99.90;;;;;;5108387;28;20479;-70
2022/08/10 02:16:41;;;;;;;5.37;2.07;;;18.80;99.90;;;;;;5106743;28;20376;-70
2022/08/10 02:19:08;;;;;;;3.53;2.40;;;18.70;99.90;;;;;;5110722;28;20384;-69
2022/08/10 02:21:36;;;;;;;4.32;2.05;;;18.70;99.90;;;;;;5109571;28;20666;-70
2022/08/10 02:24:04;;;;;;;3.35;2.00;;;18.70;99.90;;;;;;5109257;28;20453;-69
2022/08/10 02:26:30;;;;;;;3.67;2.40;;;18.70;99.90;;;;;;5108245;28;20680;-70
2022/08/10 02:28:56;;;;;;;2.75;2.00;;;18.60;99.90;;;;;;5108739;28;20735;-69
2022/08/10 02:31:24;;;;;;;2.80;1.90;;;18.60;99.90;;;;;;5108447;28;20826;-70
2022/08/10 02:33:54;;;;;;;3.13;2.05;;;18.50;99.90;;;;;;5106124;28;20376;-70
2022/08/10 02:36:23;;;;;;;3.80;1.98;;;18.50;99.90;;;;;;5110167;28;20781;-69
2022/08/10 02:38:52;;;;;;;3.00;2.08;;;18.50;99.90;;;;;;5110812;28;20431;-70
2022/08/10 02:41:24;;;;;;;2.33;1.90;;;18.50;99.90;;;;;;5111278;28;20457;-70
2022/08/10 02:43:56;;;;;;;4.88;1.90;;;18.50;99.90;;;;;;5111978;28;20656;-70
2022/08/10 02:46:57;;;;;;;4.13;1.90;;;18.50;99.90;;;;;;5109531;28;20380;-69
2022/08/10 02:49:30;;;;;;;4.45;2.53;;;18.50;99.90;;;;;;5104009;28;20507;-69
2022/08/10 02:52:00;;;;;;;3.53;2.40;;;18.40;99.90;;;;;;5111141;28;20784;-70
2022/08/10 02:54:32;;;;;;;3.38;2.08;;;18.40;99.90;;;;;;5110180;28;20404;-69
2022/08/10 02:57:16;;;;;;;2.78;2.22;;;18.40;99.90;;;;;;5110511;28;20384;-69
2022/08/10 02:59:49;;;;;;;2.63;2.10;;;18.30;99.90;;;;;;5109827;28;20382;-69
2022/08/10 03:02:28;;;;;;;2.60;2.10;;;18.30;99.90;;;;;;5111389;28;20411;-69
2022/08/10 03:04:59;;;;;;;2.10;1.90;;;18.30;99.90;;;;;;5111722;28;20467;-69
2022/08/10 03:07:31;;;;;;;4.27;2.20;;;18.30;99.90;;;;;;5111901;28;20407;-69
2022/08/10 03:09:59;;;;;;;4.63;2.20;;;18.30;99.90;;;;;;5110395;28;20656;-69
2022/08/10 03:12:25;;;;;;;3.10;1.80;;;18.30;99.90;;;;;;5111023;28;20406;-69
2022/08/10 03:14:53;;;;;;;2.58;2.33;;;18.30;99.90;;;;;;5112215;28;20403;-70
2022/08/10 03:17:19;;;;;;;2.83;2.13;;;18.20;99.90;;;;;;5111046;28;20706;-70
2022/08/10 03:19:45;;;;;;;2.25;1.95;;;18.20;99.90;;;;;;5112420;28;20445;-70
2022/08/10 03:22:12;;;;;;;3.45;1.80;;;18.10;99.90;;;;;;5114319;28;20372;-69
2022/08/10 03:24:40;;;;;;;3.60;1.95;;;18.10;99.90;;;;;;5113882;28;20387;-69
2022/08/10 03:27:06;;;;;;;2.20;2.00;;;18.10;99.90;;;;;;5113711;28;20807;-69
2022/08/10 03:29:32;;;;;;;2.65;2.20;;;18.00;99.90;;;;;;5113258;28;20369;-69
2022/08/10 03:31:59;;;;;;;4.18;2.30;;;18.00;99.90;;;;;;5112323;28;20381;-69
2022/08/10 03:34:26;;;;;;;2.65;2.00;;;18.00;99.90;;;;;;5113865;28;20415;-69
2022/08/10 03:36:51;;;;;;;2.47;1.80;;;18.00;99.90;;;;;;5113479;28;20406;-70
2022/08/10 03:39:19;;;;;;;3.08;2.33;;;18.00;99.90;;;;;;5111395;28;20499;-69
2022/08/10 03:41:51;;;;;;;1.93;1.77;;;18.00;99.90;;;;;;5112097;28;20595;-69
2022/08/10 03:44:20;;;;;;;2.50;2.17;;;17.90;99.90;;;;;;5111491;28;20380;-70
2022/08/10 03:46:47;;;;;;;2.33;2.00;;;17.90;99.90;;;;;;5112239;28;20489;-69
2022/08/10 03:49:16;;;;;;;2.10;1.90;;;17.90;99.90;;;;;;5110638;28;20430;-69
2022/08/10 03:51:44;;;;;;;3.25;2.08;;;17.90;99.90;;;;;;5111011;28;20387;-69
2022/08/10 03:54:10;;;;;;;2.92;2.15;;;17.90;99.90;;;;;;5111968;28;20487;-69
2022/08/10 03:56:37;;;;;;;3.40;2.20;;;17.90;99.90;;;;;;5112907;28;20546;-69
2022/08/10 03:59:04;;;;;;;3.75;1.95;;;17.90;99.90;;;;;;5112082;28;20380;-69
2022/08/10 04:01:29;;;;;;;2.40;1.85;;;17.80;99.90;;;;;;5108752;28;20419;-69
2022/08/10 04:03:55;;;;;;;3.30;2.10;;;17.80;99.90;;;;;;5108316;28;20811;-69
2022/08/10 04:06:21;;;;;;;3.23;2.03;;;17.80;99.90;;;;;;5110231;28;20396;-69
2022/08/10 04:08:46;;;;;;;3.40;2.25;;;17.80;99.90;;;;;;5110870;28;20404;-69
2022/08/10 04:11:12;;;;;;;2.87;2.30;;;17.80;99.90;;;;;;5110031;28;20476;-69
2022/08/10 04:13:38;;;;;;;2.60;2.00;;;17.80;99.90;;;;;;5109189;28;20822;-69
2022/08/10 04:16:04;;;;;;;2.23;2.03;;;17.80;99.90;;;;;;5108511;28;20384;-70
2022/08/10 04:18:31;;;;;;;2.90;2.00;;;17.70;99.90;;;;;;5106310;28;20858;-70
2022/08/10 04:21:06;;;;;;;2.35;2.15;;;17.80;99.90;;;;;;5107002;28;20415;-70
2022/08/10 04:23:35;;;;;;;2.15;1.90;;;17.80;99.90;;;;;;5107291;28;20800;-69
2022/08/10 04:26:00;;;;;;;2.92;2.22;;;17.70;99.90;;;;;;5107071;28;20438;-69
2022/08/10 04:28:27;;;;;;;3.80;2.05;;;17.70;99.90;;;;;;5107287;28;20439;-69
2022/08/10 04:30:53;;;;;;;4.68;2.50;;;17.70;99.90;;;;;;5106483;28;20418;-69
2022/08/10 04:33:22;;;;;;;2.53;2.33;;;17.70;99.90;;;;;;5106389;28;20741;-68
2022/08/10 04:35:49;;;;;;;3.17;2.45;;;17.70;99.90;;;;;;5107154;28;20792;-69
2022/08/10 04:38:16;;;;;;;2.88;2.58;;;17.70;99.90;;;;;;5107908;28;20469;-69
2022/08/10 04:40:43;;;;;;;3.00;2.57;;;17.60;99.90;;;;;;5108850;28;20792;-69
2022/08/10 04:43:08;;;;;;;3.78;2.60;;;17.70;99.90;;;;;;5108655;28;20389;-69
2022/08/10 04:45:34;;;;;;;2.90;2.47;;;17.70;99.90;;;;;;5108735;28;20645;-69
2022/08/10 04:48:00;;;;;;;4.43;2.90;;;17.70;99.90;;;;;;5109319;28;20691;-69
2022/08/10 04:50:26;;;;;;;3.83;2.80;;;17.70;99.90;;;;;;5106873;28;20372;-68
2022/08/10 04:52:52;;;;;;;3.15;2.70;;;17.80;99.90;;;;;;5105780;28;20567;-68
2022/08/10 04:55:18;;;;;;;3.47;2.65;;;17.70;99.90;;;;;;5106333;28;20381;-68
2022/08/10 04:57:43;;;;;;;3.53;2.20;;;17.80;99.90;;;;;;5107023;28;20541;-69
2022/08/10 05:00:10;;;;;;;3.00;2.50;;;17.80;99.90;;;;;;5104712;28;20392;-69
2022/08/10 05:02:35;;;;;;;4.10;2.47;;;17.80;99.90;;;;;;5105998;28;20384;-69
2022/08/10 05:05:01;;;;;;;2.63;2.43;;;17.90;99.90;;;;;;5104670;28;20441;-69
2022/08/10 05:07:27;;;;;;;3.78;2.40;;;17.90;99.90;;;;;;5105455;28;20372;-69
2022/08/10 05:09:53;;;;;;;2.88;2.40;;;17.90;99.90;;;;;;5105165;28;20392;-68
2022/08/10 05:12:18;;;;;;;2.70;2.47;;;17.90;99.90;;;;;;5104996;28;20876;-69
2022/08/10 05:14:44;;;;;;;3.30;2.70;;;18.00;99.90;;;;;;5105472;28;20964;-69
2022/08/10 05:17:09;;;;;;;3.50;2.28;;;18.00;99.90;;;;;;5104334;28;20387;-69
2022/08/10 05:19:35;;;;;;;3.13;2.43;;;18.00;99.90;;;;;;5101107;28;20818;-69
2022/08/10 05:22:01;;;;;;;3.63;2.20;;;18.00;99.90;;;;;;5100361;28;20596;-69
2022/08/10 05:24:27;;;;;;;2.72;2.53;;;18.00;99.90;;;;;;5103183;28;20376;-70
2022/08/10 05:26:53;;;;;;;4.10;2.80;;;18.10;99.90;;;;;;5104270;28;20703;-70
2022/08/10 05:29:18;;;;;;;2.50;2.30;;;18.10;99.90;;;;;;5104139;28;20466;-70
2022/08/10 05:31:44;;;;;;;2.47;2.27;;;18.10;99.90;;;;;;5105912;28;20471;-70
2022/08/10 05:34:10;;;;;;;3.10;2.42;;;18.10;99.90;;;;;;5106932;28;20431;-70
2022/08/10 05:36:36;;;;;;;2.30;2.10;;;18.20;99.90;;;;;;5108128;28;20806;-70
2022/08/10 05:39:01;;;;;;;3.40;2.30;;;18.20;99.90;;;;;;5102971;28;20407;-70
2022/08/10 05:41:27;;;;;;;2.28;2.08;;;18.20;99.90;;;;;;5100842;28;20859;-70
2022/08/10 05:43:55;;;;;;;4.25;2.30;;;18.30;99.90;;;;;;5100306;28;20384;-70
2022/08/10 05:46:21;;;;;;;3.13;2.03;;;18.20;99.90;;;;;;5099857;28;20695;-70
2022/08/10 05:48:48;;;;;;;2.40;2.07;;;18.30;99.90;;;;;;5099971;28;20453;-70
2022/08/10 05:51:14;;;;;;;3.43;2.33;;;18.40;99.90;;;;;;5099805;28;20462;-70
2022/08/10 05:53:40;;;;;;;1.90;1.80;;;18.40;99.90;;;;;;5099673;28;20585;-70
2022/08/10 05:56:07;;;;;;;2.22;1.70;;;18.40;99.90;;;;;;5101091;28;20384;-70
2022/08/10 05:58:34;;;;;;;1.90;1.58;;;18.40;99.90;;;;;;5100378;28;20658;-70
2022/08/10 06:01:04;;;;;;;3.90;1.88;;;18.50;99.90;;;;;;5102940;28;20725;-70
2022/08/10 06:03:34;;;;;;;2.88;1.90;;;18.50;99.90;;;;;;5101261;28;20590;-70
2022/08/10 06:06:02;;;;;;;2.42;1.83;;;18.50;99.90;;;;;;5104550;28;20751;-70
2022/08/10 06:08:31;;;;;;;4.10;1.80;;;18.50;99.90;;;;;;5103124;28;20669;-69
2022/08/10 06:11:00;;;;;;;3.83;2.20;;;18.60;99.90;;;;;;5100193;28;20495;-69
2022/08/10 06:16:14;;;;;;;2.53;1.73;;;18.60;99.90;;;;;;5101385;28;20631;-67
2022/08/10 06:18:41;;;;;;;3.70;1.80;;;18.70;99.90;;;;;;5097399;28;20670;-69
2022/08/10 06:21:08;;;;;;;2.25;1.60;;;18.70;99.90;;;;;;5095340;28;20792;-69
2022/08/10 06:23:35;;;;;;;3.17;1.60;;;18.80;99.90;;;;;;5097345;28;20629;-69
2022/08/10 06:26:01;;;;;;;3.38;1.98;;;18.80;99.90;;;;;;5098330;28;20398;-69
2022/08/10 06:28:31;;;;;;;2.08;1.60;;;18.90;99.90;;;;;;5096260;28;20506;-68
2022/08/10 06:30:59;;;;;;;3.83;1.70;;;18.90;99.90;;;;;;5098394;28;20693;-69
2022/08/10 06:33:29;;;;;;;4.15;1.77;;;18.90;99.90;;;;;;5095628;28;20384;-69
2022/08/10 06:35:56;;;;;;;2.80;1.70;;;19.00;99.90;;;;;;5097446;28;20507;-68
2022/08/10 06:38:23;;;;;;;2.00;1.48;;;19.00;99.90;;;;;;5099562;28;20391;-68
2022/08/10 06:40:53;;;;;;;1.77;1.52;;;19.10;99.90;;;;;;5102065;28;20380;-68
2022/08/10 06:43:21;;;;;;;1.90;1.50;;;19.20;99.90;;;;;;5101491;28;20396;-68
2022/08/10 06:45:52;;;;;;;2.90;1.40;;;19.20;99.90;;;;;;5098686;28;20518;-69
2022/08/10 06:48:32;;;;;;;3.35;1.90;;;19.30;99.90;;;;;;5100949;28;20405;-68
2022/08/10 06:51:07;;;;;;;1.98;1.38;;;19.30;99.90;;;;;;5103139;28;20376;-68
2022/08/10 06:53:46;;;;;;;4.18;1.80;;;19.30;99.90;;;;;;5100427;28;20391;-69
2022/08/10 06:56:17;;;;;;;1.83;1.50;;;19.40;99.90;;;;;;5102391;28;20651;-68
2022/08/10 06:59:04;;;;;;;2.55;1.90;;;19.40;99.90;;;;;;5104352;28;20380;-69
2022/08/10 07:01:34;;;;;;;4.15;1.70;;;19.50;99.90;;;;;;5104689;28;20381;-69
2022/08/10 07:04:10;;;;;;;2.05;1.40;;;19.50;99.90;;;;;;5102984;28;20372;-69
2022/08/10 07:06:40;;;;;;;2.27;1.60;;;19.50;99.90;;;;;;5100257;28;20380;-69
2022/08/10 07:09:08;;;;;;;1.52;1.33;;;19.60;99.90;;;;;;5098664;28;20706;-68
2022/08/10 07:11:34;;;;;;;2.47;1.50;;;19.60;99.90;;;;;;5100456;28;20380;-69
2022/08/10 07:14:01;;;;;;;1.98;1.58;;;19.70;99.90;;;;;;5099601;28;20396;-69
2022/08/10 07:16:28;;;;;;;2.20;1.48;;;19.70;99.90;;;;;;5100292;28;20445;-69
2022/08/10 07:18:57;;;;;;;3.72;1.50;;;19.80;99.90;;;;;;5099389;28;20381;-69
2022/08/10 07:21:25;;;;;;;1.53;1.40;;;19.80;99.90;;;;;;5100113;28;20384;-69
2022/08/10 07:23:52;;;;;;;2.40;1.30;;;19.80;99.90;;;;;;5103983;28;20497;-70
2022/08/10 07:26:18;;;;;;;1.48;1.13;;;19.90;99.90;;;;;;5103092;28;20479;-68
2022/08/10 07:28:45;;;;;;;2.58;1.30;;;20.00;99.90;;;;;;5109753;28;20396;-68
2022/08/10 07:31:12;;;;;;;2.17;1.43;;;20.00;99.90;;;;;;5108914;28;20396;-68
2022/08/10 07:33:40;;;;;;;1.65;1.10;;;20.10;99.90;;;;;;5106369;28;20383;-68
2022/08/10 07:36:09;;;;;;;2.25;1.92;;;20.10;99.90;;;;;;5105923;28;20472;-69
2022/08/10 07:38:35;;;;;;;2.15;1.80;;;20.10;99.90;;;;;;5105885;28;20400;-69
2022/08/10 07:41:04;;;;;;;2.28;1.55;;;20.20;99.90;;;;;;5108231;28;20929;-69
2022/08/10 07:43:34;;;;;;;3.08;1.60;;;20.30;99.90;;;;;;5105413;28;20956;-68
2022/08/10 07:46:03;;;;;;;1.30;1.20;;;20.30;99.90;;;;;;5102711;28;20707;-68
2022/08/10 07:48:34;;;;;;;1.40;1.10;;;20.30;99.90;;;;;;5101115;28;20440;-68
2022/08/10 07:51:01;;;;;;;2.38;1.40;;;20.30;99.90;;;;;;5104892;28;20580;-69
2022/08/10 07:53:31;;;;;;;1.83;1.35;;;20.30;99.90;;;;;;5104099;28;20407;-69
2022/08/10 07:55:58;;;;;;;1.77;1.20;;;20.40;99.90;;;;;;5102475;28;20461;-69
2022/08/10 07:58:28;;;;;;;2.15;1.40;;;20.40;99.90;;;;;;5101751;28;20476;-68
2022/08/10 08:00:56;;;;;;;2.05;1.60;;;20.40;99.90;;;;;;5110372;28;20389;-68
2022/08/10 08:03:24;;;;;;;2.20;1.70;;;20.40;99.90;;;;;;5106841;28;20377;-68
2022/08/10 08:05:51;;;;;;;1.42;1.33;;;20.50;99.90;;;;;;5103579;28;20471;-68
2022/08/10 08:08:18;;;;;;;2.20;1.50;;;20.50;99.90;;;;;;5099604;28;20404;-67
2022/08/10 08:10:45;;;;;;;2.35;1.33;;;20.50;99.90;;;;;;5098413;28;20380;-67
2022/08/10 08:13:12;;;;;;;1.30;1.00;;;20.60;99.90;;;;;;5095151;28;20637;-67
2022/08/10 08:15:39;;;;;;;2.17;1.30;;;20.60;99.90;;;;;;5095908;28;20383;-67
2022/08/10 08:18:06;;;;;;;1.55;1.30;;;20.70;99.90;;;;;;5096520;28;20380;-67
2022/08/10 08:20:32;;;;;;;2.22;1.38;;;20.70;99.90;;;;;;5100400;28;20445;-67
2022/08/10 08:22:58;;;;;;;1.75;1.10;;;20.80;99.90;;;;;;5102769;28;20396;-67
2022/08/10 08:25:24;;;;;;;1.23;1.10;;;20.70;99.90;;;;;;5103282;28;20384;-68
2022/08/10 08:27:52;;;;;;;1.60;1.13;;;20.80;99.90;;;;;;5108637;28;20397;-68
2022/08/10 08:30:20;;;;;;;1.30;1.13;;;20.80;99.90;;;;;;5109605;28;20368;-68
2022/08/10 08:32:47;;;;;;;1.45;1.20;;;20.80;99.90;;;;;;5109504;28;20379;-67
2022/08/10 08:35:16;;;;;;;1.75;1.00;;;20.90;99.90;;;;;;5109919;28;20423;-68
2022/08/10 08:37:45;;;;;;;1.15;0.98;;;21.00;99.90;;;;;;5108353;28;20400;-67
2022/08/10 08:40:14;;;;;;;1.47;1.10;;;21.00;99.90;;;;;;5110319;28;20380;-67
2022/08/10 08:43:11;;;;;;;1.60;1.10;;;21.00;99.90;;;;;;5110670;28;20391;-68
2022/08/10 08:46:05;;;;;;;1.30;0.98;;;21.10;99.90;;;;;;5110092;28;20410;-67
2022/08/10 08:48:50;;;;;;;1.92;1.08;;;21.10;99.90;;;;;;5109346;28;20502;-68
2022/08/10 08:51:47;;;;;;;1.10;1.00;;;21.20;99.90;;;;;;5109052;28;20666;-68
2022/08/10 08:54:52;;;;;;;1.20;0.95;;;21.30;99.90;;;;;;5107595;28;20454;-68
2022/08/10 08:57:39;;;;;;;2.20;1.07;;;21.30;99.90;;;;;;5108371;28;20372;-68
2022/08/10 09:00:04;;;;;;;1.25;1.05;;;21.30;99.90;;;;;;5108073;28;20491;-68
2022/08/10 09:02:53;;;;;;;1.27;0.97;;;21.40;99.90;;;;;;5108550;28;20835;-69
2022/08/10 09:05:39;;;;;;;1.17;0.85;;;21.40;99.90;;;;;;5107356;28;20426;-69
2022/08/10 09:08:18;;;;;;;1.80;1.30;;;21.50;99.90;;;;;;5106758;28;20412;-68
2022/08/10 09:11:07;;;;;;;4.03;1.17;;;21.50;99.90;;;;;;5108623;28;20834;-69
2022/08/10 09:13:59;;;;;;;1.83;1.08;;;21.60;99.90;;;;;;5098748;28;20421;-69
2022/08/10 09:16:47;;;;;;;2.22;1.05;;;21.60;99.90;;;;;;5101924;28;20385;-68
2022/08/10 09:19:21;;;;;;;1.33;0.98;;;21.50;99.90;;;;;;5106701;28;20868;-68
2022/08/10 09:22:02;;;;;;;1.35;0.85;;;21.60;99.90;;;;;;5106841;28;20379;-68
2022/08/10 09:24:52;;;;;;;1.38;0.80;;;21.60;99.90;;;;;;5106625;28;20474;-68
2022/08/10 09:27:21;;;;;;;1.40;1.00;;;21.60;99.90;;;;;;5107770;28;20384;-69
2022/08/10 09:30:00;;;;;;;0.88;0.80;;;21.70;99.90;;;;;;5109674;28;20376;-69
2022/08/10 09:32:56;;;;;;;1.70;1.20;;;21.70;99.90;;;;;;5109131;28;20463;-69
2022/08/10 09:35:43;;;;;;;1.70;1.10;;;21.80;99.90;;;;;;5107767;28;21014;-68
2022/08/10 09:38:39;;;;;;;3.07;0.93;;;21.80;99.90;;;;;;5108160;28;20457;-68
2022/08/10 09:41:31;;;;;;;0.80;0.70;;;21.90;99.90;;;;;;5107688;28;20399;-68
2022/08/10 09:44:32;;;;;;;1.92;1.40;;;22.00;99.90;;;;;;5108126;28;20391;-69
2022/08/10 09:47:18;;;;;;;1.08;0.98;;;22.10;99.90;;;;;;5094035;28;20411;-69
2022/08/10 09:50:11;;;;;;;1.75;1.30;;;22.20;99.90;;;;;;5106218;28;20498;-68
2022/08/10 09:52:50;;;;;;;1.80;1.20;;;22.20;99.90;;;;;;5105001;28;20384;-68
2022/08/10 09:55:45;;;;;;;1.20;0.93;;;22.30;99.90;;;;;;5104409;28;20400;-68
2022/08/10 09:58:22;;;;;;;2.20;0.70;;;22.30;99.90;;;;;;5105889;28;20441;-68
2022/08/10 10:00:57;;;;;;;1.52;0.80;;;22.40;99.90;;;;;;5105428;28;20433;-68
2022/08/10 10:03:45;;;;;;;1.05;0.80;;;22.40;99.90;;;;;;5104387;28;20380;-68
2022/08/10 10:06:17;;;;;;;0.80;0.70;;;22.40;99.90;;;;;;5102719;28;21036;-68
2022/08/10 10:09:13;;;;;;;4.75;1.05;;;22.40;99.90;;;;;;5104825;28;20490;-67
2022/08/10 10:11:57;;;;;;;1.10;0.88;;;22.30;99.90;;;;;;5104513;28;20437;-68
2022/08/10 10:15:19;;;;;;;3.08;1.00;;;22.40;99.90;;;;;;5101648;28;20529;-68
2022/08/10 10:17:46;;;;;;;2.13;1.60;;;22.40;99.90;;;;;;5103702;28;20432;-68
2022/08/10 10:20:27;;;;;;;3.30;1.08;;;22.40;99.90;;;;;;5103582;28;20380;-68
2022/08/10 10:23:00;;;;;;;0.70;0.70;;;22.40;99.90;;;;;;5103073;28;20392;-68
2022/08/10 10:25:42;;;;;;;1.20;0.70;;;22.50;99.90;;;;;;5103897;28;20380;-68
2022/08/10 10:28:33;;;;;;;0.70;0.63;;;22.60;99.90;;;;;;5099947;28;20483;-69
2022/08/10 10:31:20;;;;;;;1.63;0.87;;;22.70;99.90;;;;;;5100353;28;20476;-68
2022/08/10 10:33:58;;;;;;;1.52;0.88;;;22.80;99.90;;;;;;5104994;28;20418;-68
2022/08/10 10:36:26;;;;;;;0.90;0.70;;;22.80;99.90;;;;;;5107087;28;20403;-68
2022/08/10 10:38:55;;;;;;;0.77;0.60;;;22.80;99.90;;;;;;5105890;28;20692;-68
2022/08/10 10:41:23;;;;;;;1.33;0.77;;;22.90;99.90;;;;;;5105073;28;20372;-68
2022/08/10 10:43:58;;;;;;;0.77;0.60;;;23.00;99.90;;;;;;5106470;28;20376;-69
2022/08/10 10:46:38;;;;;;;0.60;0.60;;;23.00;99.90;;;;;;5107696;28;20471;-69
2022/08/10 10:49:46;;;;;;;1.17;0.70;;;23.10;99.90;;;;;;5104012;28;20403;-69
2022/08/10 10:52:37;;;;;;;1.88;0.80;;;23.10;99.90;;;;;;5107419;28;20376;-69
2022/08/10 10:55:40;;;;;;;0.70;0.70;;;23.00;99.90;;;;;;5104050;28;20391;-68
2022/08/10 10:58:36;;;;;;;0.90;0.80;;;23.00;99.90;;;;;;5102408;28;20368;-68
2022/08/10 11:01:25;;;;;;;1.90;0.90;;;23.10;99.90;;;;;;5102647;28;20467;-69
2022/08/10 11:03:57;;;;;;;0.88;0.68;;;23.10;99.90;;;;;;5104372;27;20380;-69
2022/08/10 11:06:46;;;;;;;0.73;0.70;;;23.10;99.90;;;;;;5103224;28;20380;-70
2022/08/10 11:09:21;;;;;;;2.03;0.80;;;23.20;99.90;;;;;;5102903;28;20441;-69
2022/08/10 11:11:53;;;;;;;0.63;0.60;;;23.30;99.90;;;;;;5103517;28;20569;-69
2022/08/10 11:14:36;;;;;;;1.42;0.75;;;23.40;99.90;;;;;;5103328;28;20377;-70
2022/08/10 11:17:14;;;;;;;1.85;0.80;;;23.50;99.90;;;;;;5101359;28;20372;-70
2022/08/10 11:19:58;;;;;;;1.65;0.90;;;23.60;99.90;;;;;;5102661;28;20487;-70
2022/08/10 11:22:41;;;;;;;1.60;0.80;;;23.60;99.90;;;;;;5100932;28;20377;-67
2022/08/10 11:25:45;;;;;;;1.17;0.75;;;23.80;99.90;;;;;;5103395;28;20397;-69
2022/08/10 11:28:20;;;;;;;1.42;0.90;;;24.20;99.90;;;;;;5044906;28;20777;-69
2022/08/10 11:30:49;;;;;;;0.90;0.70;;;24.50;99.90;;;;;;5093256;28;20479;-69
2022/08/10 11:33:36;;;;;;;0.90;0.60;;;24.70;99.90;;;;;;5104103;28;21121;-70
2022/08/10 11:36:07;;;;;;;2.20;0.60;;;25.00;99.90;;;;;;5105577;28;20423;-68
2022/08/10 11:38:40;;;;;;;1.35;0.70;;;25.20;99.90;;;;;;5105491;28;20443;-69
2022/08/10 11:41:27;;;;;;;1.20;0.63;;;25.50;99.90;;;;;;5104004;28;20396;-69
2022/08/10 11:44:22;;;;;;;1.35;0.70;;;25.80;99.90;;;;;;5105207;28;20380;-69
2022/08/10 11:47:09;;;;;;;1.60;0.80;;;26.10;99.90;;;;;;5101226;28;20795;-68
2022/08/10 11:49:57;;;;;;;2.15;0.70;;;26.40;99.90;;;;;;5097747;27;20392;-69
2022/08/10 11:52:39;;;;;;;1.00;0.70;;;26.70;99.90;;;;;;5095950;28;20662;-69
2022/08/10 11:55:33;;;;;;;0.63;0.60;;;26.90;99.90;;;;;;5095080;28;20641;-69
2022/08/10 12:00:55;;;;;;;0.60;0.50;;;27.20;99.90;;;;;;5098477;28;20571;-69
2022/08/10 12:03:23;;;;;;;0.70;0.70;;;27.40;99.90;;;;;;5098098;28;20368;-69
2022/08/10 12:05:51;;;;;;;0.80;0.73;;;27.20;99.90;;;;;;5099634;28;20466;-68
2022/08/10 12:08:18;;;;;;;1.30;1.17;;;26.90;99.90;;;;;;5096729;28;20533;-69
2022/08/10 12:10:46;;;;;;;1.50;1.13;;;26.70;99.90;;;;;;5093684;28;20392;-69
2022/08/10 12:13:22;;;;;;;1.00;0.80;;;26.90;99.90;;;;;;5097272;28;20741;-68
2022/08/10 12:16:00;;;;;;;1.98;0.70;;;27.20;99.90;;;;;;5097566;28;20392;-68
2022/08/10 12:18:32;;;;;;;0.52;0.52;;;27.50;99.90;;;;;;5094525;28;20784;-69
2022/08/10 12:21:02;;;;;;;0.95;0.60;;;27.80;99.90;;;;;;5095079;28;20807;-70
2022/08/10 12:23:40;;;;;;;0.50;0.50;;;28.10;99.90;;;;;;5093012;28;20777;-69
2022/08/10 12:26:17;;;;;;;0.93;0.80;;;28.40;99.90;;;;;;5093551;28;20449;-69
2022/08/10 12:29:05;;;;;;;1.10;0.70;;;28.60;99.90;;;;;;5093715;28;20629;-68
2022/08/10 12:31:42;;;;;;;0.90;0.70;;;28.70;99.90;;;;;;5093825;28;20427;-70
2022/08/10 12:34:29;;;;;;;0.80;0.70;;;29.00;99.90;;;;;;5093337;28;20891;-69
2022/08/10 12:37:18;;;;;;;0.60;0.60;;;29.00;99.90;;;;;;5092613;28;20674;-69
2022/08/10 12:39:53;;;;;;;1.50;0.93;;;29.00;99.90;;;;;;5094239;28;20380;-70
2022/08/10 12:42:27;;;;;;;1.92;0.90;;;29.10;99.90;;;;;;5094377;28;20575;-69
2022/08/10 12:45:04;;;;;;;0.93;0.80;;;29.30;99.90;;;;;;5093385;28;20595;-69
2022/08/10 12:47:57;;;;;;;0.70;0.70;;;29.50;99.90;;;;;;5094727;28;20555;-69
2022/08/10 12:50:35;;;;;;;1.40;0.60;;;29.50;99.90;;;;;;5095286;28;20745;-69
2022/08/10 12:53:39;;;;;;;1.13;0.90;;;29.70;99.90;;;;;;5095834;28;20659;-70
2022/08/10 12:56:05;;;;;;;1.00;0.60;;;29.30;99.40;;;;;;5087185;28;20434;-70
2022/08/10 12:58:33;;;;;;;1.60;0.65;;;29.30;99.90;;;;;;5100459;28;20380;-70
2022/08/10 13:01:01;;;;;;;0.93;0.70;;;29.60;99.90;;;;;;5101235;28;20677;-69
2022/08/10 13:03:29;;;;;;;0.95;0.70;;;29.80;99.90;;;;;;5101562;28;20527;-70
2022/08/10 13:05:55;;;;;;;0.60;0.60;;;30.00;99.90;;;;;;5101712;28;20471;-70
2022/08/10 13:11:10;;;;;;;0.80;0.70;;;30.50;99.90;;;;;;5105575;28;20437;-70
2022/08/10 13:13:38;;;;;;;0.77;0.60;;;30.70;99.90;;;;;;5110269;28;20376;-69
2022/08/10 13:16:05;;;;;;;0.55;0.55;;;30.90;99.70;;;;;;5108763;28;20380;-70
2022/08/10 13:18:39;;;;;;;1.63;0.70;;;30.90;99.40;;;;;;5105444;28;20419;-70
2022/08/10 13:21:08;;;;;;;2.13;0.55;;;30.80;98.30;;;;;;5105356;28;20444;-70
2022/08/10 13:23:41;;;;;;;1.00;0.70;;;30.90;99.10;;;;;;5102250;28;20461;-70
2022/08/10 13:26:13;;;;;;;0.70;0.70;;;31.10;98.50;;;;;;5102469;28;20388;-70